createdAt,value
2022-07-29T00:00:28.271Z,77.96
2022-07-29T00:01:28.161Z,77.90
2022-07-29T00:02:28.635Z,77.88
2022-07-29T00:03:28.158Z,77.87
2022-07-29T00:04:28.284Z,77.89
2022-07-29T00:05:28.278Z,77.96
2022-07-29T00:06:28.164Z,78.04
2022-07-29T00:07:28.522Z,78.07
2022-07-29T00:08:28.111Z,78.12
2022-07-29T00:09:28.441Z,78.03
2022-07-29T00:10:28.190Z,78.01
2022-07-29T00:11:28.240Z,77.93
2022-07-29T00:12:28.171Z,77.86
2022-07-29T00:13:31.774Z,77.85
2022-07-29T00:14:29.034Z,77.78
2022-07-29T00:15:28.262Z,77.63
2022-07-29T00:16:28.223Z,77.51
2022-07-29T00:17:28.316Z,77.12
2022-07-29T00:18:28.163Z,76.82
2022-07-29T00:19:28.189Z,76.46
2022-07-29T00:20:28.143Z,76.32
2022-07-29T00:22:28.139Z,75.66
2022-07-29T00:23:28.229Z,75.29
2022-07-29T00:24:28.409Z,75.11
2022-07-29T00:26:32.746Z,75.28
2022-07-29T00:27:28.148Z,75.39
2022-07-29T00:28:28.164Z,75.40
2022-07-29T00:29:34.121Z,75.41
2022-07-29T00:30:28.202Z,75.29
2022-07-29T00:33:28.166Z,75.38
2022-07-29T00:34:37.503Z,75.39
2022-07-29T00:35:37.510Z,75.38
2022-07-29T00:36:28.150Z,75.48
2022-07-29T00:37:28.517Z,75.69
2022-07-29T00:38:28.163Z,75.83
2022-07-29T00:39:28.120Z,75.78
2022-07-29T00:40:28.221Z,75.31
2022-07-29T00:41:28.107Z,75.09
2022-07-29T00:42:28.645Z,75.12
2022-07-29T00:43:28.560Z,75.00
2022-07-29T00:44:28.128Z,74.86
2022-07-29T00:45:28.223Z,74.92
2022-07-29T00:46:28.509Z,75.07
2022-07-29T00:47:28.120Z,75.19
2022-07-29T00:48:28.134Z,75.30
2022-07-29T00:49:28.378Z,75.49
2022-07-29T00:50:28.773Z,75.84
2022-07-29T00:51:28.903Z,76.24
2022-07-29T00:52:28.496Z,76.46
2022-07-29T00:53:28.476Z,76.63
2022-07-29T00:55:28.665Z,77.02
2022-07-29T00:56:28.439Z,77.22
2022-07-29T00:57:28.199Z,77.45
2022-07-29T00:58:29.171Z,77.73
2022-07-29T00:59:34.735Z,77.87
2022-07-29T01:00:30.538Z,78.17
2022-07-29T01:01:29.699Z,78.31
2022-07-29T01:02:28.353Z,78.43
2022-07-29T01:03:28.199Z,78.61
2022-07-29T01:04:30.913Z,78.79
2022-07-29T01:05:48.511Z,78.85
2022-07-29T01:06:29.070Z,78.92
2022-07-29T01:07:29.291Z,78.97
2022-07-29T01:08:28.407Z,79.05
2022-07-29T01:09:42.175Z,79.14
2022-07-29T01:10:28.759Z,79.19
2022-07-29T01:11:28.332Z,79.22
2022-07-29T01:12:30.398Z,79.11
2022-07-29T01:13:28.511Z,79.04
2022-07-29T01:14:29.818Z,78.89
2022-07-29T01:15:28.503Z,78.89
2022-07-29T01:16:34.039Z,78.98
2022-07-29T01:17:38.885Z,79.11
2022-07-29T01:18:35.738Z,79.09
2022-07-29T01:19:46.032Z,79.05
2022-07-29T01:20:41.391Z,78.93
2022-07-29T01:21:37.673Z,78.77
2022-07-29T01:23:45.987Z,78.66
2022-07-29T01:24:36.767Z,78.63
2022-07-29T01:26:43.786Z,78.49
2022-07-29T01:27:38.028Z,78.38
2022-07-29T01:28:46.075Z,78.37
2022-07-29T01:29:40.384Z,78.36
2022-07-29T01:30:30.139Z,78.32
2022-07-29T01:31:49.139Z,78.02
2022-07-29T01:32:33.255Z,77.93
2022-07-29T01:33:40.519Z,77.89
2022-07-29T01:34:37.997Z,77.81
2022-07-29T01:35:35.782Z,77.74
2022-07-29T01:36:41.620Z,77.62
2022-07-29T01:37:38.359Z,77.39
2022-07-29T01:38:30.889Z,77.18
2022-07-29T01:39:34.389Z,76.88
2022-07-29T01:40:39.139Z,76.79
2022-07-29T01:41:33.179Z,76.85
2022-07-29T01:42:30.385Z,76.95
2022-07-29T01:43:41.655Z,76.84
2022-07-29T01:44:36.234Z,76.45
2022-07-29T01:45:39.525Z,76.12
2022-07-29T01:46:36.729Z,75.78
2022-07-29T01:47:36.647Z,75.72
2022-07-29T01:48:39.264Z,75.42
2022-07-29T01:49:33.487Z,75.25
2022-07-29T01:54:39.330Z,74.93
2022-07-29T01:55:32.921Z,74.80
2022-07-29T01:56:32.247Z,74.88
2022-07-29T01:57:32.677Z,74.84
2022-07-29T01:58:30.797Z,74.64
2022-07-29T01:59:28.770Z,74.34
2022-07-29T02:00:29.371Z,74.26
2022-07-29T02:01:29.935Z,74.17
2022-07-29T02:02:30.193Z,74.41
2022-07-29T02:03:29.520Z,74.46
2022-07-29T02:04:30.404Z,74.45
2022-07-29T02:05:30.836Z,74.16
2022-07-29T02:06:29.487Z,74.21
2022-07-29T02:07:30.989Z,74.02
2022-07-29T02:08:29.880Z,73.87
2022-07-29T02:09:29.647Z,73.67
2022-07-29T02:10:31.504Z,73.70
2022-07-29T02:11:28.143Z,73.89
2022-07-29T02:12:30.263Z,74.00
2022-07-29T02:14:31.710Z,74.14
2022-07-29T02:15:32.313Z,74.09
2022-07-29T02:16:32.114Z,74.03
2022-07-29T02:17:34.338Z,74.01
2022-07-29T02:18:32.121Z,73.85
2022-07-29T02:19:29.542Z,73.87
2022-07-29T02:20:30.022Z,73.58
2022-07-29T02:21:29.900Z,73.63
2022-07-29T02:22:31.109Z,73.71
2022-07-29T02:23:29.161Z,73.55
2022-07-29T02:24:29.186Z,73.48
2022-07-29T02:25:36.787Z,73.43
2022-07-29T02:26:28.681Z,73.60
2022-07-29T02:27:30.675Z,73.87
2022-07-29T02:28:30.336Z,74.05
2022-07-29T02:29:30.328Z,74.14
2022-07-29T02:30:29.098Z,74.09
2022-07-29T02:31:36.262Z,74.23
2022-07-29T02:32:29.584Z,74.46
2022-07-29T02:33:30.108Z,74.53
2022-07-29T02:34:29.867Z,74.75
2022-07-29T02:35:28.542Z,75.18
2022-07-29T02:36:28.895Z,75.41
2022-07-29T02:37:30.359Z,75.63
2022-07-29T02:38:39.296Z,75.74
2022-07-29T02:39:30.295Z,75.35
2022-07-29T02:40:28.288Z,75.43
2022-07-29T02:41:39.389Z,75.40
2022-07-29T02:42:30.215Z,75.34
2022-07-29T02:43:28.788Z,75.34
2022-07-29T02:44:34.144Z,75.02
2022-07-29T02:45:28.582Z,74.66
2022-07-29T02:46:33.603Z,73.93
2022-07-29T02:47:41.778Z,73.73
2022-07-29T02:48:38.972Z,73.57
2022-07-29T02:50:35.810Z,73.25
2022-07-29T02:51:44.960Z,72.98
2022-07-29T02:52:38.732Z,72.77
2022-07-29T02:53:30.611Z,72.67
2022-07-29T02:54:33.698Z,72.77
2022-07-29T02:55:33.593Z,72.89
2022-07-29T02:56:36.157Z,73.12
2022-07-29T02:57:54.850Z,73.12
2022-07-29T02:58:31.622Z,73.10
2022-07-29T02:59:32.359Z,72.89
2022-07-29T03:00:30.596Z,72.32
2022-07-29T03:01:32.030Z,72.41
2022-07-29T03:02:30.446Z,72.59
2022-07-29T03:03:33.646Z,72.62
2022-07-29T03:04:30.396Z,72.95
2022-07-29T03:05:29.142Z,73.17
2022-07-29T03:06:38.540Z,73.63
2022-07-29T03:07:28.558Z,74.14
2022-07-29T03:08:29.562Z,74.82
2022-07-29T03:09:29.316Z,75.20
2022-07-29T03:10:29.534Z,75.04
2022-07-29T03:11:46.040Z,75.30
2022-07-29T03:12:28.438Z,75.92
2022-07-29T03:13:29.144Z,76.58
2022-07-29T03:14:28.051Z,77.22
2022-07-29T03:15:28.818Z,77.71
2022-07-29T03:16:28.236Z,78.11
2022-07-29T03:18:27.885Z,78.55
2022-07-29T03:19:28.628Z,78.63
2022-07-29T03:20:28.592Z,78.80
2022-07-29T03:21:27.724Z,78.93
2022-07-29T03:22:28.004Z,79.27
2022-07-29T03:23:35.180Z,79.21
2022-07-29T03:24:28.372Z,79.25
2022-07-29T03:25:28.496Z,79.38
2022-07-29T03:26:27.863Z,79.62
2022-07-29T03:27:27.615Z,79.51
2022-07-29T03:28:28.410Z,79.49
2022-07-29T03:29:33.425Z,79.48
2022-07-29T03:30:28.047Z,79.30
2022-07-29T03:31:27.728Z,79.29
2022-07-29T03:32:27.602Z,79.29
2022-07-29T03:33:27.688Z,79.23
2022-07-29T03:34:27.798Z,79.25
2022-07-29T03:35:27.778Z,79.12
2022-07-29T03:36:27.567Z,79.05
2022-07-29T03:37:27.914Z,78.99
2022-07-29T03:38:31.167Z,78.86
2022-07-29T03:39:31.523Z,78.92
2022-07-29T03:41:28.305Z,78.73
2022-07-29T03:43:32.658Z,78.34
2022-07-29T03:47:39.303Z,78.02
2022-07-29T03:48:30.436Z,78.04
2022-07-29T03:49:29.424Z,77.75
2022-07-29T03:50:27.822Z,77.57
2022-07-29T03:51:31.559Z,77.88
2022-07-29T03:52:27.938Z,77.91
2022-07-29T03:53:27.707Z,77.99
2022-07-29T03:54:28.105Z,78.01
2022-07-29T03:55:30.169Z,78.00
2022-07-29T03:56:29.616Z,78.09
2022-07-29T03:57:30.045Z,78.12
2022-07-29T03:58:29.492Z,78.10
2022-07-29T03:59:29.307Z,78.05
2022-07-29T04:00:28.923Z,78.00
2022-07-29T04:02:30.672Z,77.76
2022-07-29T04:04:27.953Z,77.75
2022-07-29T04:05:27.560Z,77.75
2022-07-29T04:06:27.741Z,77.86
2022-07-29T04:07:27.621Z,77.87
2022-07-29T04:09:27.933Z,78.04
2022-07-29T04:10:31.683Z,78.11
2022-07-29T04:12:27.559Z,78.22
2022-07-29T04:13:27.654Z,78.03
2022-07-29T04:14:27.604Z,78.03
2022-07-29T04:15:31.060Z,77.99
2022-07-29T04:16:27.815Z,77.86
2022-07-29T04:17:27.592Z,77.79
2022-07-29T04:18:27.640Z,77.40
2022-07-29T04:19:27.628Z,76.48
2022-07-29T04:20:27.674Z,76.23
2022-07-29T04:21:27.875Z,75.64
2022-07-29T04:22:27.645Z,75.29
2022-07-29T04:23:27.976Z,75.19
2022-07-29T04:25:27.572Z,74.73
2022-07-29T04:26:27.629Z,74.28
2022-07-29T04:27:27.925Z,74.36
2022-07-29T04:30:27.664Z,74.66
2022-07-29T04:32:28.086Z,74.98
2022-07-29T04:33:27.640Z,75.13
2022-07-29T04:36:29.410Z,75.58
2022-07-29T04:37:27.522Z,75.73
2022-07-29T04:43:27.720Z,76.45
2022-07-29T04:45:27.683Z,76.67
2022-07-29T04:47:27.626Z,76.92
2022-07-29T04:48:28.944Z,77.12
2022-07-29T04:49:27.702Z,77.18
2022-07-29T04:50:27.626Z,77.47
2022-07-29T04:51:27.650Z,77.71
2022-07-29T04:52:27.582Z,77.91
2022-07-29T04:53:28.053Z,78.13
2022-07-29T04:54:27.590Z,78.29
2022-07-29T04:55:27.692Z,78.48
2022-07-29T04:56:27.902Z,78.65
2022-07-29T04:57:27.594Z,78.81
2022-07-29T04:58:27.601Z,79.05
2022-07-29T04:59:28.210Z,79.31
2022-07-29T05:00:32.083Z,79.68
2022-07-29T05:01:27.646Z,79.99
2022-07-29T05:02:27.659Z,79.92
2022-07-29T05:03:27.547Z,80.12
2022-07-29T05:04:27.513Z,80.31
2022-07-29T05:05:27.608Z,80.50
2022-07-29T05:06:27.564Z,80.64
2022-07-29T05:07:27.545Z,80.87
2022-07-29T05:08:27.669Z,80.93
2022-07-29T05:09:27.626Z,80.90
2022-07-29T05:10:27.627Z,80.39
2022-07-29T05:11:30.534Z,79.89
2022-07-29T05:12:28.724Z,78.85
2022-07-29T05:13:27.511Z,77.79
2022-07-29T05:14:27.645Z,77.16
2022-07-29T05:15:28.198Z,76.48
2022-07-29T05:16:27.893Z,75.65
2022-07-29T05:17:27.723Z,75.52
2022-07-29T05:18:27.884Z,74.78
2022-07-29T05:19:27.559Z,74.84
2022-07-29T05:20:29.338Z,74.92
2022-07-29T05:22:27.630Z,74.91
2022-07-29T05:23:27.569Z,74.93
2022-07-29T05:24:27.827Z,75.01
2022-07-29T05:25:43.503Z,75.13
2022-07-29T05:26:27.605Z,75.23
2022-07-29T05:27:27.524Z,75.29
2022-07-29T05:28:27.506Z,75.49
2022-07-29T05:32:27.629Z,75.81
2022-07-29T05:34:27.637Z,76.10
2022-07-29T05:37:27.584Z,76.36
2022-07-29T05:40:27.582Z,76.75
2022-07-29T05:42:27.809Z,77.06
2022-07-29T05:46:27.804Z,77.20
2022-07-29T05:47:28.264Z,76.76
2022-07-29T05:48:27.562Z,76.51
2022-07-29T05:49:27.689Z,76.36
2022-07-29T05:50:27.495Z,76.04
2022-07-29T05:51:27.749Z,75.83
2022-07-29T05:52:27.894Z,75.61
2022-07-29T05:53:27.554Z,75.24
2022-07-29T05:54:27.553Z,74.82
2022-07-29T05:55:27.510Z,74.76
2022-07-29T05:56:27.906Z,74.76
2022-07-29T05:57:27.484Z,74.75
2022-07-29T06:00:27.867Z,74.19
2022-07-29T06:01:27.569Z,73.51
2022-07-29T06:02:27.721Z,73.55
2022-07-29T06:03:27.938Z,73.25
2022-07-29T06:04:27.539Z,72.99
2022-07-29T06:05:27.808Z,72.51
2022-07-29T06:07:27.511Z,72.81
2022-07-29T06:08:27.557Z,72.93
2022-07-29T06:09:29.219Z,73.01
2022-07-29T06:10:27.993Z,72.94
2022-07-29T06:11:27.722Z,72.94
2022-07-29T06:12:27.482Z,73.03
2022-07-29T06:13:27.579Z,72.92
2022-07-29T06:14:29.413Z,72.94
2022-07-29T06:15:27.522Z,72.83
2022-07-29T06:18:27.938Z,72.76
2022-07-29T06:19:27.632Z,72.75
2022-07-29T06:23:27.533Z,72.16
2022-07-29T06:24:28.200Z,71.66
2022-07-29T06:25:30.350Z,71.79
2022-07-29T06:26:30.429Z,71.49
2022-07-29T06:27:27.575Z,71.30
2022-07-29T06:28:27.546Z,70.95
2022-07-29T06:29:27.522Z,70.07
2022-07-29T06:30:27.781Z,69.93
2022-07-29T06:34:27.574Z,69.11
2022-07-29T06:35:38.296Z,68.63
2022-07-29T06:36:27.486Z,68.45
2022-07-29T06:37:27.428Z,68.39
2022-07-29T06:38:30.897Z,68.81
2022-07-29T06:39:27.533Z,69.04
2022-07-29T06:40:37.155Z,69.41
2022-07-29T06:41:27.503Z,69.70
2022-07-29T06:42:27.462Z,69.97
2022-07-29T06:43:28.289Z,70.15
2022-07-29T06:44:27.476Z,70.32
2022-07-29T06:45:27.696Z,70.50
2022-07-29T06:46:28.696Z,70.61
2022-07-29T06:47:27.503Z,70.71
2022-07-29T06:48:27.747Z,70.79
2022-07-29T06:49:28.777Z,70.95
2022-07-29T06:50:27.801Z,71.09
2022-07-29T06:51:28.513Z,71.24
2022-07-29T06:52:27.528Z,71.37
2022-07-29T06:53:28.170Z,71.58
2022-07-29T06:54:27.476Z,71.78
2022-07-29T06:55:31.087Z,71.96
2022-07-29T06:56:27.704Z,72.12
2022-07-29T06:57:27.487Z,72.33
2022-07-29T06:58:28.769Z,72.50
2022-07-29T06:59:33.541Z,72.65
2022-07-29T07:00:27.484Z,72.76
2022-07-29T07:01:27.651Z,72.88
2022-07-29T07:02:27.582Z,73.00
2022-07-29T07:03:27.535Z,73.08
2022-07-29T07:04:27.646Z,73.16
2022-07-29T07:06:28.552Z,73.18
2022-07-29T07:07:27.514Z,73.25
2022-07-29T07:08:28.087Z,73.30
2022-07-29T07:09:39.956Z,73.31
2022-07-29T07:11:27.682Z,73.07
2022-07-29T07:12:27.463Z,72.70
2022-07-29T07:13:29.181Z,72.43
2022-07-29T07:14:28.508Z,72.21
2022-07-29T07:15:38.829Z,71.83
2022-07-29T07:16:27.607Z,71.52
2022-07-29T07:17:27.446Z,71.27
2022-07-29T07:18:27.457Z,70.96
2022-07-29T07:20:27.625Z,70.67
2022-07-29T07:21:30.379Z,70.47
2022-07-29T07:25:27.821Z,69.98
2022-07-29T07:26:28.188Z,69.95
2022-07-29T07:27:28.487Z,69.95
2022-07-29T07:28:27.437Z,70.00
2022-07-29T07:29:27.491Z,70.12
2022-07-29T07:30:28.360Z,70.14
2022-07-29T07:31:27.591Z,70.23
2022-07-29T07:32:27.562Z,70.27
2022-07-29T07:34:28.157Z,70.44
2022-07-29T07:36:27.518Z,70.63
2022-07-29T07:37:27.815Z,70.68
2022-07-29T07:38:27.423Z,70.78
2022-07-29T07:39:27.454Z,70.93
2022-07-29T07:40:27.569Z,71.07
2022-07-29T07:41:27.609Z,71.09
2022-07-29T07:42:27.554Z,71.06
2022-07-29T07:43:27.507Z,70.92
2022-07-29T07:44:27.663Z,70.75
2022-07-29T07:45:27.868Z,70.59
2022-07-29T07:48:27.834Z,70.66
2022-07-29T07:49:27.525Z,70.78
2022-07-29T07:50:27.725Z,70.83
2022-07-29T07:51:27.998Z,70.82
2022-07-29T07:52:27.539Z,70.84
2022-07-29T07:53:27.589Z,70.95
2022-07-29T07:54:27.630Z,71.10
2022-07-29T07:55:27.945Z,71.25
2022-07-29T07:56:30.731Z,71.45
2022-07-29T07:57:27.518Z,71.71
2022-07-29T07:58:27.472Z,72.03
2022-07-29T07:59:27.511Z,72.38
2022-07-29T08:00:27.968Z,72.71
2022-07-29T08:01:27.454Z,73.03
2022-07-29T08:02:27.490Z,73.30
2022-07-29T08:03:27.410Z,73.55
2022-07-29T08:04:29.139Z,73.79
2022-07-29T08:05:27.420Z,73.97
2022-07-29T08:06:28.417Z,74.20
2022-07-29T08:07:27.479Z,74.40
2022-07-29T08:08:27.467Z,74.55
2022-07-29T08:09:30.517Z,74.72
2022-07-29T08:10:36.934Z,74.86
2022-07-29T08:12:27.537Z,75.08
2022-07-29T08:13:29.345Z,75.19
2022-07-29T08:14:27.520Z,75.21
2022-07-29T08:16:27.499Z,75.26
2022-07-29T08:17:27.777Z,75.25
2022-07-29T08:18:28.746Z,75.23
2022-07-29T08:19:27.553Z,75.24
2022-07-29T08:20:27.692Z,75.24
2022-07-29T08:21:27.503Z,75.25
2022-07-29T08:22:27.414Z,75.29
2022-07-29T08:23:47.816Z,75.30
2022-07-29T08:24:36.816Z,75.38
2022-07-29T08:25:27.363Z,75.38
2022-07-29T08:26:27.424Z,75.40
2022-07-29T08:27:43.119Z,75.36
2022-07-29T08:28:27.371Z,75.34
2022-07-29T08:29:27.417Z,75.35
2022-07-29T08:30:27.445Z,75.39
2022-07-29T08:31:27.477Z,75.39
2022-07-29T08:32:52.184Z,75.41
2022-07-29T08:33:27.453Z,75.46
2022-07-29T08:34:27.926Z,75.55
2022-07-29T08:35:30.957Z,75.63
2022-07-29T08:36:27.741Z,75.69
2022-07-29T08:37:27.358Z,75.72
2022-07-29T08:38:28.526Z,75.74
2022-07-29T08:39:27.854Z,75.77
2022-07-29T08:40:32.567Z,75.84
2022-07-29T08:41:28.032Z,75.88
2022-07-29T08:42:27.469Z,75.94
2022-07-29T08:43:27.665Z,76.01
2022-07-29T08:44:30.880Z,76.05
2022-07-29T08:45:27.751Z,76.13
2022-07-29T08:46:27.591Z,76.17
2022-07-29T08:47:29.245Z,76.26
2022-07-29T08:48:27.373Z,76.38
2022-07-29T08:49:27.487Z,76.44
2022-07-29T08:50:27.397Z,76.51
2022-07-29T08:51:29.006Z,76.56
2022-07-29T08:52:29.580Z,76.60
2022-07-29T08:53:29.763Z,76.64
2022-07-29T08:54:28.085Z,76.67
2022-07-29T08:55:28.020Z,76.72
2022-07-29T08:56:27.680Z,76.77
2022-07-29T08:57:27.954Z,76.81
2022-07-29T08:58:28.830Z,76.87
2022-07-29T08:59:29.310Z,77.01
2022-07-29T09:00:28.463Z,77.15
2022-07-29T09:01:35.226Z,77.30
2022-07-29T09:02:30.808Z,77.40
2022-07-29T09:03:32.628Z,77.51
2022-07-29T09:04:32.554Z,77.57
2022-07-29T09:05:28.682Z,77.67
2022-07-29T09:06:34.325Z,77.67
2022-07-29T09:07:27.372Z,77.65
2022-07-29T09:08:27.623Z,77.55
2022-07-29T09:09:28.027Z,77.53
2022-07-29T09:10:27.861Z,77.51
2022-07-29T09:11:27.880Z,77.49
2022-07-29T09:14:27.435Z,77.60
2022-07-29T09:15:27.446Z,77.68
2022-07-29T09:16:51.897Z,77.79
2022-07-29T09:17:45.106Z,77.90
2022-07-29T09:18:37.441Z,77.96
2022-07-29T09:19:31.008Z,78.03
2022-07-29T09:20:37.244Z,78.08
2022-07-29T09:21:46.156Z,78.13
2022-07-29T09:22:32.855Z,78.22
2022-07-29T09:23:27.323Z,78.30
2022-07-29T09:24:38.587Z,78.40
2022-07-29T09:25:36.803Z,78.50
2022-07-29T09:26:30.934Z,78.60
2022-07-29T09:28:27.411Z,78.72
2022-07-29T09:29:31.156Z,78.80
2022-07-29T09:30:31.373Z,78.92
2022-07-29T09:31:35.816Z,78.97
2022-07-29T09:32:28.114Z,79.04
2022-07-29T09:35:29.282Z,79.20
2022-07-29T09:36:27.491Z,79.21
2022-07-29T09:37:31.221Z,79.25
2022-07-29T09:41:28.624Z,79.37
2022-07-29T09:45:35.486Z,79.47
2022-07-29T09:47:46.145Z,79.47
2022-07-29T09:53:33.476Z,79.44
2022-07-29T09:54:29.132Z,79.43
2022-07-29T09:55:27.422Z,79.43
2022-07-29T09:56:44.040Z,79.43
2022-07-29T09:57:31.200Z,79.39
2022-07-29T09:58:28.831Z,79.33
2022-07-29T09:59:27.740Z,79.33
2022-07-29T10:00:28.156Z,79.39
2022-07-29T10:01:30.541Z,79.48
2022-07-29T10:02:32.685Z,79.48
2022-07-29T10:03:27.605Z,79.42
2022-07-29T10:04:43.785Z,79.35
2022-07-29T10:05:36.073Z,79.23
2022-07-29T10:06:27.363Z,79.11
2022-07-29T10:07:27.518Z,79.03
2022-07-29T10:10:30.021Z,78.88
2022-07-29T10:11:27.334Z,78.84
2022-07-29T10:12:27.295Z,78.86
2022-07-29T10:13:27.926Z,78.91
2022-07-29T10:14:27.409Z,78.95
2022-07-29T10:15:29.692Z,79.00
2022-07-29T10:16:33.699Z,79.04
2022-07-29T10:17:27.450Z,79.09
2022-07-29T10:18:27.414Z,79.19
2022-07-29T10:19:27.431Z,79.30
2022-07-29T10:20:28.992Z,79.40
2022-07-29T10:22:51.846Z,79.62
2022-07-29T10:23:27.964Z,79.67
2022-07-29T10:24:28.982Z,79.74
2022-07-29T10:25:28.495Z,79.79
2022-07-29T10:26:27.498Z,79.85
2022-07-29T10:27:27.594Z,79.89
2022-07-29T10:28:27.768Z,79.92
2022-07-29T10:29:28.488Z,79.94
2022-07-29T10:34:45.532Z,79.88
2022-07-29T10:35:31.439Z,79.87
2022-07-29T10:35:46.400Z,79.87
2022-07-29T10:36:03.679Z,79.87
2022-07-29T10:37:35.983Z,79.86
2022-07-29T10:39:49.725Z,79.63
2022-07-29T10:45:27.550Z,79.18
2022-07-29T10:47:28.634Z,79.01
2022-07-29T10:48:27.530Z,78.95
2022-07-29T10:49:30.377Z,78.88
2022-07-29T10:51:27.395Z,78.73
2022-07-29T10:54:37.328Z,78.66
2022-07-29T10:55:37.752Z,78.63
2022-07-29T10:57:53.994Z,78.67
2022-07-29T10:59:36.178Z,78.54
2022-07-29T11:00:31.606Z,78.50
2022-07-29T11:01:37.664Z,78.60
2022-07-29T11:02:41.908Z,78.71
2022-07-29T11:03:49.559Z,78.77
2022-07-29T11:04:45.383Z,78.89
2022-07-29T11:05:39.989Z,78.99
2022-07-29T11:06:36.618Z,79.04
2022-07-29T11:07:28.144Z,79.09
2022-07-29T11:08:28.118Z,79.09
2022-07-29T11:09:37.426Z,79.14
2022-07-29T11:10:31.196Z,79.20
2022-07-29T11:11:33.687Z,79.31
2022-07-29T11:12:39.949Z,79.37
2022-07-29T11:13:47.366Z,79.29
2022-07-29T11:14:45.435Z,79.35
2022-07-29T11:15:28.617Z,79.42
2022-07-29T11:16:27.743Z,79.54
2022-07-29T11:17:27.627Z,79.63
2022-07-29T11:18:27.327Z,79.70
2022-07-29T11:19:30.401Z,79.77
2022-07-29T11:21:55.011Z,79.89
2022-07-29T11:23:36.642Z,79.96
2022-07-29T11:24:29.619Z,79.98
2022-07-29T11:26:28.853Z,79.98
2022-07-29T11:27:40.571Z,79.96
2022-07-29T11:29:27.551Z,79.85
2022-07-29T11:31:44.773Z,79.69
2022-07-29T11:32:38.808Z,79.67
2022-07-29T11:33:37.546Z,79.68
2022-07-29T11:34:30.853Z,79.69
2022-07-29T11:35:37.976Z,79.72
2022-07-29T11:36:28.392Z,79.74
2022-07-29T11:38:31.870Z,79.67
2022-07-29T11:39:36.355Z,79.63
2022-07-29T11:40:27.328Z,79.62
2022-07-29T11:41:30.243Z,79.63
2022-07-29T11:42:35.991Z,79.66
2022-07-29T11:43:45.389Z,79.68
2022-07-29T11:44:45.340Z,79.61
2022-07-29T11:45:44.153Z,79.61
2022-07-29T11:46:46.369Z,79.64
2022-07-29T11:47:29.000Z,79.68
2022-07-29T11:48:36.752Z,79.62
2022-07-29T11:49:32.383Z,79.66
2022-07-29T11:50:33.537Z,79.72
2022-07-29T11:51:32.697Z,79.76
2022-07-29T11:52:49.764Z,79.80
2022-07-29T11:53:29.277Z,79.87
2022-07-29T11:54:33.523Z,79.81
2022-07-29T11:55:32.250Z,79.79
2022-07-29T11:56:32.357Z,79.80
2022-07-29T11:57:36.337Z,79.77
2022-07-29T11:58:28.747Z,79.81
2022-07-29T11:59:33.448Z,79.85
2022-07-29T12:00:38.860Z,79.90
2022-07-29T12:01:28.134Z,79.89
2022-07-29T12:02:38.147Z,79.94
2022-07-29T12:03:32.882Z,80.01
2022-07-29T12:04:28.440Z,80.02
2022-07-29T12:05:48.304Z,80.03
2022-07-29T12:06:27.259Z,80.03
2022-07-29T12:07:34.611Z,80.06
2022-07-29T12:08:28.753Z,80.14
2022-07-29T12:09:27.351Z,80.15
2022-07-29T12:10:32.647Z,80.21
2022-07-29T12:11:27.328Z,80.31
2022-07-29T12:12:27.644Z,80.43
2022-07-29T12:13:37.587Z,80.52
2022-07-29T12:15:31.527Z,80.58
2022-07-29T12:18:27.960Z,80.61
2022-07-29T12:19:27.907Z,80.60
2022-07-29T12:20:29.802Z,80.58
2022-07-29T12:21:28.795Z,80.63
2022-07-29T12:22:28.111Z,80.65
2022-07-29T12:23:29.485Z,80.69
2022-07-29T12:24:27.636Z,80.68
2022-07-29T12:25:32.590Z,80.71
2022-07-29T12:26:27.240Z,80.63
2022-07-29T12:27:28.567Z,80.62
2022-07-29T12:28:28.115Z,80.66
2022-07-29T12:29:35.100Z,80.72
2022-07-29T12:30:41.531Z,80.78
2022-07-29T12:31:43.304Z,80.77
2022-07-29T12:32:37.180Z,80.77
2022-07-29T12:33:30.608Z,80.79
2022-07-29T12:34:30.493Z,80.84
2022-07-29T12:35:27.390Z,80.87
2022-07-29T12:36:27.922Z,80.83
2022-07-29T12:37:40.754Z,80.83
2022-07-29T12:38:27.913Z,80.80
2022-07-29T12:39:29.211Z,80.79
2022-07-29T12:40:27.292Z,80.78
2022-07-29T12:41:29.257Z,80.80
2022-07-29T12:42:27.286Z,80.78
2022-07-29T12:43:27.939Z,80.76
2022-07-29T12:44:36.540Z,80.80
2022-07-29T12:45:31.992Z,80.80
2022-07-29T12:46:27.742Z,80.78
2022-07-29T12:47:27.249Z,80.81
2022-07-29T12:48:40.434Z,80.87
2022-07-29T12:49:27.865Z,80.93
2022-07-29T12:50:27.255Z,80.99
2022-07-29T12:51:38.396Z,81.08
2022-07-29T12:52:32.274Z,81.11
2022-07-29T12:53:28.013Z,81.13
2022-07-29T12:54:27.163Z,81.20
2022-07-29T12:56:42.376Z,81.29
2022-07-29T12:58:32.313Z,81.33
2022-07-29T12:59:27.191Z,81.33
2022-07-29T13:02:27.307Z,81.46
2022-07-29T13:03:27.266Z,81.46
2022-07-29T13:04:30.591Z,81.48
2022-07-29T13:05:48.826Z,81.49
2022-07-29T13:06:36.964Z,81.47
2022-07-29T13:07:54.418Z,81.42
2022-07-29T13:08:27.177Z,81.43
2022-07-29T13:09:44.082Z,81.38
2022-07-29T13:12:27.249Z,81.43
2022-07-29T13:13:27.157Z,81.43
2022-07-29T13:14:34.418Z,81.43
2022-07-29T13:15:27.483Z,81.43
2022-07-29T13:16:27.486Z,81.38
2022-07-29T13:17:32.614Z,81.35
2022-07-29T13:18:30.477Z,81.28
2022-07-29T13:19:37.043Z,81.21
2022-07-29T13:20:30.770Z,81.17
2022-07-29T13:21:27.150Z,81.13
2022-07-29T13:22:27.172Z,81.07
2022-07-29T13:23:27.234Z,81.00
2022-07-29T13:24:27.159Z,80.96
2022-07-29T13:25:28.810Z,80.90
2022-07-29T13:26:27.175Z,80.85
2022-07-29T13:27:29.519Z,80.80
2022-07-29T13:28:27.205Z,80.70
2022-07-29T13:29:31.447Z,80.59
2022-07-29T13:30:27.762Z,80.53
2022-07-29T13:31:27.310Z,80.47
2022-07-29T13:32:29.001Z,80.41
2022-07-29T13:33:27.179Z,80.38
2022-07-29T13:35:30.505Z,80.28
2022-07-29T13:38:31.106Z,80.22
2022-07-29T13:39:27.177Z,80.25
2022-07-29T13:40:27.447Z,80.28
2022-07-29T13:41:28.079Z,80.31
2022-07-29T13:42:28.423Z,80.39
2022-07-29T13:43:27.137Z,80.43
2022-07-29T13:44:27.253Z,80.46
2022-07-29T13:45:29.158Z,80.50
2022-07-29T13:46:27.148Z,80.56
2022-07-29T13:47:32.395Z,80.56
2022-07-29T13:48:27.122Z,80.53
2022-07-29T13:49:27.518Z,80.56
2022-07-29T13:50:27.275Z,80.62
2022-07-29T13:51:27.143Z,80.68
2022-07-29T13:52:27.124Z,80.69
2022-07-29T13:53:27.417Z,80.73
2022-07-29T13:54:27.099Z,80.77
2022-07-29T13:55:27.247Z,80.84
2022-07-29T13:56:27.351Z,80.90
2022-07-29T13:57:27.491Z,80.95
2022-07-29T13:58:27.133Z,80.99
2022-07-29T13:59:27.081Z,80.96
2022-07-29T14:00:27.264Z,80.94
2022-07-29T14:01:28.221Z,80.95
2022-07-29T14:02:27.121Z,80.95
2022-07-29T14:03:27.195Z,80.98
2022-07-29T14:04:27.205Z,81.01
2022-07-29T14:05:27.332Z,81.04
2022-07-29T14:06:27.198Z,81.06
2022-07-29T14:07:27.125Z,81.08
2022-07-29T14:08:27.451Z,81.06
2022-07-29T14:09:27.208Z,81.05
2022-07-29T14:10:28.434Z,81.11
2022-07-29T14:11:27.240Z,81.12
2022-07-29T14:12:27.202Z,81.13
2022-07-29T14:13:27.122Z,81.14
2022-07-29T14:14:27.172Z,81.14
2022-07-29T14:15:27.170Z,81.12
2022-07-29T14:16:27.197Z,81.14
2022-07-29T14:17:27.369Z,81.15
2022-07-29T14:18:27.223Z,81.13
2022-07-29T14:19:27.249Z,81.11
2022-07-29T14:20:27.320Z,81.11
2022-07-29T14:21:27.153Z,81.15
2022-07-29T14:22:27.170Z,81.16
2022-07-29T14:23:27.600Z,81.16
2022-07-29T14:24:27.082Z,81.15
2022-07-29T14:25:27.117Z,81.18
2022-07-29T14:26:27.183Z,81.23
2022-07-29T14:27:37.783Z,81.24
2022-07-29T14:28:27.312Z,81.23
2022-07-29T14:29:36.974Z,81.27
2022-07-29T14:30:27.167Z,81.32
2022-07-29T14:32:27.146Z,81.33
2022-07-29T14:33:27.111Z,81.36
2022-07-29T14:34:27.164Z,81.37
2022-07-29T14:35:27.229Z,81.27
2022-07-29T14:36:28.613Z,81.32
2022-07-29T14:37:27.097Z,81.37
2022-07-29T14:40:27.241Z,81.45
2022-07-29T14:41:29.248Z,81.45
2022-07-29T14:42:27.198Z,81.45
2022-07-29T14:49:27.625Z,81.42
2022-07-29T14:55:29.455Z,81.42
2022-07-29T14:56:36.684Z,81.45
2022-07-29T14:59:27.409Z,81.46
2022-07-29T15:00:27.782Z,81.48
2022-07-29T15:01:27.222Z,81.46
2022-07-29T15:02:45.741Z,81.46
2022-07-29T15:03:27.041Z,81.42
2022-07-29T15:04:27.124Z,81.40
2022-07-29T15:05:27.700Z,81.36
2022-07-29T15:06:27.631Z,81.30
2022-07-29T15:07:27.559Z,81.24
2022-07-29T15:08:29.280Z,81.20
2022-07-29T15:10:28.410Z,81.10
2022-07-29T15:11:27.102Z,81.06
2022-07-29T15:14:27.070Z,81.03
2022-07-29T15:16:27.130Z,80.96
2022-07-29T15:17:27.261Z,80.91